KOEO/OEO METAR and TAF weather

Enter ICAO airport designator
Station Type Date Time Source
KOEO METAR 2021/09/28 15:35 UTC NOAA

KOEO 281535Z AUTO 16010KT 10SM CLR 19/12 A3001 RMK AO2 T01860120


Station Type Date Time Source
KOEO Decoded METAR 2021/09/28 15:35 UTC NOAA

Osceola, L O Simenstad Municipal Airport, WI, United States (KOEO) 45-18-31N 092-41-24W
Sep 28, 2021 - 11:35 AM EDT / 2021.09.28 1535 UTC
Wind: from the SSE (160 degrees) at 12 MPH (10 KT):0
Visibility: 10 mile(s):0
Sky conditions: clear
Temperature: 65.5 F (18.6 C)
Dew Point: 53.6 F (12.0 C)
Relative Humidity: 65%
Pressure (altimeter): 30.01 in. Hg (1016 hPa)
ob: KOEO 281535Z AUTO 16010KT 10SM CLR 19/12 A3001 RMK AO2 T01860120
cycle: 15

Station Type Date Time Source
KOEO TAF UTC NOAA

Error!

Example: see airport list